createdAt,value
2018-09-24T07:14:24.157Z,99.90
2018-09-24T07:19:35.041Z,99.90
2018-09-24T07:24:53.177Z,99.90
2018-09-24T07:30:04.661Z,98.00
2018-09-24T07:35:08.570Z,95.70
2018-09-24T07:40:12.061Z,93.60
2018-09-24T07:45:14.858Z,94.00
2018-09-24T07:50:17.450Z,93.20
2018-09-24T07:55:15.740Z,91.00
2018-09-24T08:00:13.480Z,87.80
2018-09-24T08:05:12.436Z,87.90
2018-09-24T08:10:08.760Z,88.70
2018-09-24T08:15:05.495Z,84.60
2018-09-24T08:20:02.503Z,83.60
2018-09-24T08:24:59.422Z,81.30
2018-09-24T08:29:49.823Z,78.00
2018-09-24T08:34:45.613Z,77.20
2018-09-24T08:39:37.115Z,74.80
2018-09-24T08:44:29.078Z,72.20
2018-09-24T08:49:24.326Z,72.50
2018-09-24T08:54:15.798Z,68.60
2018-09-24T08:59:09.969Z,66.80
2018-09-24T09:04:05.086Z,68.00
2018-09-24T09:08:56.451Z,62.10
2018-09-24T09:13:48.417Z,61.90
2018-09-24T09:18:43.584Z,60.00
2018-09-24T09:23:34.984Z,59.90
2018-09-24T09:28:30.121Z,59.60
2018-09-24T09:33:23.134Z,59.50
2018-09-24T09:38:14.776Z,59.70
2018-09-24T09:43:10.024Z,59.10
2018-09-24T09:48:01.454Z,58.10
2018-09-24T09:52:53.798Z,57.10
2018-09-24T09:57:50.798Z,58.00
2018-09-24T10:02:50.310Z,58.10
2018-09-24T10:07:40.999Z,56.40
2018-09-24T10:12:34.763Z,56.20
2018-09-24T10:17:28.193Z,57.80
2018-09-24T10:22:21.430Z,59.30
2018-09-24T10:27:15.379Z,60.50
2018-09-24T10:32:11.612Z,62.60
2018-09-24T10:37:05.689Z,59.60
2018-09-24T10:41:56.753Z,60.20
2018-09-24T10:46:53.277Z,57.90
2018-09-24T10:51:49.000Z,58.90
2018-09-24T10:56:42.353Z,59.40
2018-09-24T11:01:33.101Z,57.90
2018-09-24T11:06:30.405Z,58.40
2018-09-24T11:11:24.457Z,59.20
2018-09-24T11:16:20.456Z,58.90
2018-09-24T11:21:14.192Z,57.90
2018-09-24T11:26:07.800Z,58.00
2018-09-24T11:31:02.474Z,57.70
2018-09-24T11:35:57.106Z,55.90
2018-09-24T11:40:50.643Z,55.80
2018-09-24T11:45:43.804Z,55.00
2018-09-24T11:50:34.241Z,52.40
2018-09-24T11:55:25.421Z,52.40
2018-09-24T12:00:18.977Z,53.30
2018-09-24T12:05:13.257Z,54.70
2018-09-24T12:10:03.999Z,55.80
2018-09-24T12:14:57.325Z,56.20
2018-09-24T12:19:51.603Z,57.10
2018-09-24T12:24:42.717Z,58.30
2018-09-24T12:29:34.614Z,58.10
2018-09-24T12:34:29.832Z,58.60
2018-09-24T12:39:26.939Z,58.70
2018-09-24T12:44:21.113Z,58.10
2018-09-24T12:49:17.266Z,55.80
2018-09-24T12:54:10.655Z,55.20
2018-09-24T12:59:02.980Z,56.10
2018-09-24T13:03:59.207Z,56.30
2018-09-24T13:08:49.575Z,56.10
2018-09-24T13:13:41.693Z,56.70
2018-09-24T13:18:33.840Z,56.90
2018-09-24T13:23:28.314Z,55.20
2018-09-24T13:28:25.343Z,54.30
2018-09-24T13:33:18.548Z,53.00
2018-09-24T13:38:12.259Z,53.00
2018-09-24T13:43:03.331Z,51.80
2018-09-24T13:47:54.866Z,51.80
2018-09-24T13:52:46.486Z,51.80
2018-09-24T13:57:41.316Z,51.80
2018-09-24T14:02:34.474Z,52.30
2018-09-24T14:07:25.448Z,52.40
2018-09-24T14:12:16.820Z,52.90
2018-09-24T14:17:08.452Z,54.40
2018-09-24T14:22:02.890Z,51.40
2018-09-24T14:26:53.942Z,52.30
2018-09-24T14:31:45.645Z,51.10
2018-09-24T14:36:37.444Z,51.80
2018-09-24T14:41:31.114Z,49.40
2018-09-24T14:46:22.296Z,49.10
2018-09-24T14:51:13.790Z,49.10
2018-09-24T14:56:05.508Z,50.10
2018-09-24T15:01:00.073Z,50.50
2018-09-24T15:05:53.977Z,50.30
2018-09-24T15:10:47.616Z,50.50
2018-09-24T15:15:41.743Z,50.90
2018-09-24T15:20:33.573Z,49.70
2018-09-24T15:25:24.809Z,50.00
2018-09-24T15:30:19.560Z,51.70
2018-09-24T15:35:10.162Z,52.90
2018-09-24T15:40:05.216Z,53.70
2018-09-24T15:44:59.440Z,54.30
2018-09-24T15:49:52.471Z,55.40
2018-09-24T15:54:46.925Z,55.40
2018-09-24T15:59:46.406Z,56.20
2018-09-24T16:04:37.646Z,56.70
2018-09-24T16:09:30.815Z,56.70
2018-09-24T16:14:25.215Z,56.90
2018-09-24T16:19:16.305Z,57.90
2018-09-24T16:24:11.317Z,58.40
2018-09-24T16:29:07.389Z,59.40
2018-09-24T16:34:00.770Z,60.80
2018-09-24T16:38:57.047Z,61.20
2018-09-24T16:43:50.397Z,62.10
2018-09-24T16:48:49.119Z,61.70
2018-09-24T16:53:47.253Z,62.10
2018-09-24T16:58:47.141Z,62.20
2018-09-24T17:03:44.261Z,63.00
2018-09-24T17:08:47.911Z,64.00
2018-09-24T17:13:49.375Z,64.30
2018-09-24T17:18:49.745Z,64.40
2018-09-24T17:23:53.453Z,64.80
2018-09-24T17:29:00.179Z,65.30
2018-09-24T17:33:58.196Z,66.10
2018-09-24T17:38:58.834Z,66.60
2018-09-24T17:44:05.513Z,67.30
2018-09-24T17:49:13.842Z,67.80
2018-09-24T17:54:16.062Z,68.80
2018-09-24T17:59:20.131Z,69.80
2018-09-24T18:04:28.380Z,70.50
2018-09-24T18:09:36.837Z,71.30
2018-09-24T18:14:48.750Z,72.70
2018-09-24T18:19:50.067Z,73.60
2018-09-24T18:24:53.885Z,74.60
2018-09-24T18:30:06.405Z,75.10
2018-09-24T18:35:08.828Z,75.50
2018-09-24T18:40:18.380Z,76.00
2018-09-24T18:45:20.344Z,75.80
2018-09-24T18:50:29.960Z,75.60
2018-09-24T18:55:33.797Z,75.80
2018-09-24T19:00:44.225Z,76.40
2018-09-24T19:05:54.888Z,77.50
2018-09-24T19:11:06.767Z,78.50
2018-09-24T19:16:12.757Z,79.80
2018-09-24T19:21:28.110Z,81.20
2018-09-24T19:26:41.447Z,81.40
2018-09-24T19:31:53.109Z,82.10
2018-09-24T19:37:05.515Z,81.70
2018-09-24T19:42:13.912Z,82.10
2018-09-24T19:47:22.798Z,83.10
2018-09-24T19:52:36.483Z,84.30
2018-09-24T19:57:49.656Z,86.00
2018-09-24T20:02:59.140Z,87.20
2018-09-24T20:08:19.956Z,88.70
2018-09-24T20:18:54.593Z,90.30
2018-09-24T20:24:11.950Z,91.20
2018-09-24T20:29:30.968Z,91.40
2018-09-24T20:34:54.995Z,91.60
2018-09-24T20:40:21.816Z,91.70
2018-09-24T20:45:43.111Z,92.10
2018-09-24T20:51:02.288Z,92.30
2018-09-24T20:56:22.472Z,92.40
2018-09-24T21:06:58.014Z,92.40
2018-09-24T21:12:11.911Z,92.00
2018-09-24T21:33:08.328Z,92.10
2018-09-24T21:38:21.579Z,92.50
2018-09-24T21:43:42.875Z,92.60
2018-09-24T22:20:29.659Z,92.70
2018-09-24T22:36:24.231Z,94.50
